sensor_id;sensor_type;location;lat;lon;timestamp;temperature;humidity
75451;DHT22;64029;48.244;9.188;2022-10-16T00:00:37;13.10;82.20
75451;DHT22;64029;48.244;9.188;2022-10-16T00:03:04;13.10;82.30
75451;DHT22;64029;48.244;9.188;2022-10-16T00:05:31;13.00;82.20
75451;DHT22;64029;48.244;9.188;2022-10-16T00:07:58;13.00;82.20
75451;DHT22;64029;48.244;9.188;2022-10-16T00:10:25;13.00;82.20
75451;DHT22;64029;48.244;9.188;2022-10-16T00:12:53;13.00;82.20
75451;DHT22;64029;48.244;9.188;2022-10-16T00:15:20;13.00;82.30
75451;DHT22;64029;48.244;9.188;2022-10-16T00:17:47;13.00;82.30
75451;DHT22;64029;48.244;9.188;2022-10-16T00:20:14;12.90;82.10
75451;DHT22;64029;48.244;9.188;2022-10-16T00:22:40;12.90;82.10
75451;DHT22;64029;48.244;9.188;2022-10-16T00:25:07;12.90;82.10
75451;DHT22;64029;48.244;9.188;2022-10-16T00:27:35;12.90;82.20
75451;DHT22;64029;48.244;9.188;2022-10-16T00:30:04;12.90;82.20
75451;DHT22;64029;48.244;9.188;2022-10-16T00:32:31;12.90;82.20
75451;DHT22;64029;48.244;9.188;2022-10-16T00:34:57;12.90;82.20
75451;DHT22;64029;48.244;9.188;2022-10-16T00:37:24;12.80;82.10
75451;DHT22;64029;48.244;9.188;2022-10-16T00:39:51;12.80;82.10
75451;DHT22;64029;48.244;9.188;2022-10-16T00:42:18;12.80;82.20
75451;DHT22;64029;48.244;9.188;2022-10-16T00:44:49;12.80;82.10
75451;DHT22;64029;48.244;9.188;2022-10-16T00:47:22;12.80;82.20
75451;DHT22;64029;48.244;9.188;2022-10-16T00:49:53;12.80;82.20
75451;DHT22;64029;48.244;9.188;2022-10-16T00:52:22;12.80;82.20
75451;DHT22;64029;48.244;9.188;2022-10-16T00:54:49;12.70;82.00
75451;DHT22;64029;48.244;9.188;2022-10-16T00:57:18;12.70;82.10
75451;DHT22;64029;48.244;9.188;2022-10-16T00:59:45;12.70;82.10
75451;DHT22;64029;48.244;9.188;2022-10-16T01:02:14;12.70;82.10
75451;DHT22;64029;48.244;9.188;2022-10-16T01:04:44;12.70;82.10
75451;DHT22;64029;48.244;9.188;2022-10-16T01:07:16;12.70;82.90
75451;DHT22;64029;48.244;9.188;2022-10-16T01:09:57;12.70;82.10
75451;DHT22;64029;48.244;9.188;2022-10-16T01:12:38;12.70;82.20
75451;DHT22;64029;48.244;9.188;2022-10-16T01:15:14;12.70;82.20
75451;DHT22;64029;48.244;9.188;2022-10-16T01:17:48;12.70;82.30
75451;DHT22;64029;48.244;9.188;2022-10-16T01:20:24;12.60;82.00
75451;DHT22;64029;48.244;9.188;2022-10-16T01:23:15;12.60;82.10
75451;DHT22;64029;48.244;9.188;2022-10-16T01:26:02;12.60;82.10
75451;DHT22;64029;48.244;9.188;2022-10-16T01:28:38;12.60;82.10
75451;DHT22;64029;48.244;9.188;2022-10-16T01:31:06;12.60;82.10
75451;DHT22;64029;48.244;9.188;2022-10-16T01:33:38;12.60;82.10
75451;DHT22;64029;48.244;9.188;2022-10-16T01:36:12;12.60;82.20
75451;DHT22;64029;48.244;9.188;2022-10-16T01:38:40;12.60;82.20
75451;DHT22;64029;48.244;9.188;2022-10-16T01:41:10;12.60;82.20
75451;DHT22;64029;48.244;9.188;2022-10-16T01:43:43;12.60;82.10
75451;DHT22;64029;48.244;9.188;2022-10-16T01:46:13;12.60;82.10
75451;DHT22;64029;48.244;9.188;2022-10-16T01:48:42;12.60;82.20
75451;DHT22;64029;48.244;9.188;2022-10-16T01:51:11;12.60;82.30
75451;DHT22;64029;48.244;9.188;2022-10-16T01:53:39;12.60;82.20
75451;DHT22;64029;48.244;9.188;2022-10-16T01:56:09;12.50;82.10
75451;DHT22;64029;48.244;9.188;2022-10-16T01:58:45;12.50;82.10
75451;DHT22;64029;48.244;9.188;2022-10-16T02:01:14;12.60;82.20
75451;DHT22;64029;48.244;9.188;2022-10-16T02:03:42;12.50;82.10
75451;DHT22;64029;48.244;9.188;2022-10-16T02:06:11;12.60;82.20
75451;DHT22;64029;48.244;9.188;2022-10-16T02:08:38;12.50;82.20
75451;DHT22;64029;48.244;9.188;2022-10-16T02:11:09;12.50;82.20
75451;DHT22;64029;48.244;9.188;2022-10-16T02:13:39;12.50;82.10
75451;DHT22;64029;48.244;9.188;2022-10-16T02:16:12;12.50;82.20
75451;DHT22;64029;48.244;9.188;2022-10-16T02:18:40;12.50;82.20
75451;DHT22;64029;48.244;9.188;2022-10-16T02:21:14;12.50;82.30
75451;DHT22;64029;48.244;9.188;2022-10-16T02:23:48;12.50;82.40
75451;DHT22;64029;48.244;9.188;2022-10-16T02:26:25;12.50;82.30
75451;DHT22;64029;48.244;9.188;2022-10-16T02:28:57;12.50;82.20
75451;DHT22;64029;48.244;9.188;2022-10-16T02:31:29;12.50;82.30
75451;DHT22;64029;48.244;9.188;2022-10-16T02:34:00;12.50;82.30
75451;DHT22;64029;48.244;9.188;2022-10-16T02:36:28;12.50;82.30
75451;DHT22;64029;48.244;9.188;2022-10-16T02:38:55;12.50;82.30
75451;DHT22;64029;48.244;9.188;2022-10-16T02:41:23;12.50;82.30
75451;DHT22;64029;48.244;9.188;2022-10-16T02:43:50;12.50;82.30
75451;DHT22;64029;48.244;9.188;2022-10-16T02:46:17;12.50;82.40
75451;DHT22;64029;48.244;9.188;2022-10-16T02:48:46;12.50;82.40
75451;DHT22;64029;48.244;9.188;2022-10-16T02:51:13;12.50;82.40
75451;DHT22;64029;48.244;9.188;2022-10-16T02:53:40;12.50;82.40
75451;DHT22;64029;48.244;9.188;2022-10-16T02:56:07;12.50;82.50
75451;DHT22;64029;48.244;9.188;2022-10-16T02:58:34;12.50;82.40
75451;DHT22;64029;48.244;9.188;2022-10-16T03:01:01;12.50;82.40
75451;DHT22;64029;48.244;9.188;2022-10-16T03:03:27;12.50;82.40
75451;DHT22;64029;48.244;9.188;2022-10-16T03:05:55;12.50;82.40
75451;DHT22;64029;48.244;9.188;2022-10-16T03:08:22;12.50;82.50
75451;DHT22;64029;48.244;9.188;2022-10-16T03:10:50;12.40;82.30
75451;DHT22;64029;48.244;9.188;2022-10-16T03:13:17;12.50;82.40
75451;DHT22;64029;48.244;9.188;2022-10-16T03:15:46;12.50;82.60
75451;DHT22;64029;48.244;9.188;2022-10-16T03:18:13;12.40;82.50
75451;DHT22;64029;48.244;9.188;2022-10-16T03:20:39;12.40;82.40
75451;DHT22;64029;48.244;9.188;2022-10-16T03:23:08;12.40;82.40
75451;DHT22;64029;48.244;9.188;2022-10-16T03:25:35;12.40;82.40
75451;DHT22;64029;48.244;9.188;2022-10-16T03:28:02;12.40;82.40
75451;DHT22;64029;48.244;9.188;2022-10-16T03:30:29;12.40;82.50
75451;DHT22;64029;48.244;9.188;2022-10-16T03:32:56;12.40;82.40
75451;DHT22;64029;48.244;9.188;2022-10-16T03:35:24;12.40;82.30
75451;DHT22;64029;48.244;9.188;2022-10-16T03:37:51;12.40;82.50
75451;DHT22;64029;48.244;9.188;2022-10-16T03:40:19;12.30;82.40
75451;DHT22;64029;48.244;9.188;2022-10-16T03:42:46;12.30;82.30
75451;DHT22;64029;48.244;9.188;2022-10-16T03:45:13;12.30;82.30
75451;DHT22;64029;48.244;9.188;2022-10-16T03:47:40;12.30;82.40
75451;DHT22;64029;48.244;9.188;2022-10-16T03:50:07;12.30;82.40
75451;DHT22;64029;48.244;9.188;2022-10-16T03:52:34;12.30;82.40
75451;DHT22;64029;48.244;9.188;2022-10-16T03:55:01;12.30;82.30
75451;DHT22;64029;48.244;9.188;2022-10-16T03:57:29;12.30;82.40
75451;DHT22;64029;48.244;9.188;2022-10-16T03:59:56;12.30;82.40
75451;DHT22;64029;48.244;9.188;2022-10-16T04:02:23;12.30;82.50
75451;DHT22;64029;48.244;9.188;2022-10-16T04:04:50;12.30;82.40
75451;DHT22;64029;48.244;9.188;2022-10-16T04:07:17;12.30;82.50
75451;DHT22;64029;48.244;9.188;2022-10-16T04:09:43;12.30;82.50
75451;DHT22;64029;48.244;9.188;2022-10-16T04:12:10;12.20;82.30
75451;DHT22;64029;48.244;9.188;2022-10-16T04:14:38;12.30;82.50
75451;DHT22;64029;48.244;9.188;2022-10-16T04:17:05;12.20;82.40
75451;DHT22;64029;48.244;9.188;2022-10-16T04:19:32;12.20;82.40
75451;DHT22;64029;48.244;9.188;2022-10-16T04:21:59;12.20;82.40
75451;DHT22;64029;48.244;9.188;2022-10-16T04:24:26;12.20;82.40
75451;DHT22;64029;48.244;9.188;2022-10-16T04:26:52;12.20;82.40
75451;DHT22;64029;48.244;9.188;2022-10-16T04:29:19;12.20;82.40
75451;DHT22;64029;48.244;9.188;2022-10-16T04:31:48;12.20;82.40
75451;DHT22;64029;48.244;9.188;2022-10-16T04:34:14;12.20;82.40
75451;DHT22;64029;48.244;9.188;2022-10-16T04:36:41;12.10;82.20
75451;DHT22;64029;48.244;9.188;2022-10-16T04:39:08;12.20;83.10
75451;DHT22;64029;48.244;9.188;2022-10-16T04:41:35;12.20;82.40
75451;DHT22;64029;48.244;9.188;2022-10-16T04:44:02;12.20;82.40
75451;DHT22;64029;48.244;9.188;2022-10-16T04:46:28;12.10;82.30
75451;DHT22;64029;48.244;9.188;2022-10-16T04:48:57;12.10;82.30
75451;DHT22;64029;48.244;9.188;2022-10-16T04:51:24;12.10;82.30
75451;DHT22;64029;48.244;9.188;2022-10-16T04:53:51;12.10;82.30
75451;DHT22;64029;48.244;9.188;2022-10-16T04:56:18;12.10;82.30
75451;DHT22;64029;48.244;9.188;2022-10-16T04:58:46;12.10;82.30
75451;DHT22;64029;48.244;9.188;2022-10-16T05:01:13;12.10;82.40
75451;DHT22;64029;48.244;9.188;2022-10-16T05:03:40;12.10;82.30
75451;DHT22;64029;48.244;9.188;2022-10-16T05:06:08;12.10;82.30
75451;DHT22;64029;48.244;9.188;2022-10-16T05:08:35;12.10;82.20
75451;DHT22;64029;48.244;9.188;2022-10-16T05:11:02;12.00;82.30
75451;DHT22;64029;48.244;9.188;2022-10-16T05:13:28;12.00;82.30
75451;DHT22;64029;48.244;9.188;2022-10-16T05:15:55;12.00;82.30
75451;DHT22;64029;48.244;9.188;2022-10-16T05:18:22;12.00;82.20
75451;DHT22;64029;48.244;9.188;2022-10-16T05:20:49;12.00;82.20
75451;DHT22;64029;48.244;9.188;2022-10-16T05:23:17;12.00;82.20
75451;DHT22;64029;48.244;9.188;2022-10-16T05:25:52;12.00;82.30
75451;DHT22;64029;48.244;9.188;2022-10-16T05:28:19;12.00;82.40
75451;DHT22;64029;48.244;9.188;2022-10-16T05:30:45;12.00;82.30
75451;DHT22;64029;48.244;9.188;2022-10-16T05:33:12;12.00;82.40
75451;DHT22;64029;48.244;9.188;2022-10-16T05:35:39;12.00;82.40
75451;DHT22;64029;48.244;9.188;2022-10-16T05:38:06;12.00;82.40
75451;DHT22;64029;48.244;9.188;2022-10-16T05:40:34;12.00;82.40
75451;DHT22;64029;48.244;9.188;2022-10-16T05:43:01;12.00;82.30
75451;DHT22;64029;48.244;9.188;2022-10-16T05:45:27;12.00;82.30
75451;DHT22;64029;48.244;9.188;2022-10-16T05:47:54;12.00;82.40
75451;DHT22;64029;48.244;9.188;2022-10-16T05:50:21;12.00;82.30
75451;DHT22;64029;48.244;9.188;2022-10-16T05:52:48;12.00;82.40
75451;DHT22;64029;48.244;9.188;2022-10-16T05:55:15;12.00;82.40
75451;DHT22;64029;48.244;9.188;2022-10-16T05:57:43;12.00;82.40
75451;DHT22;64029;48.244;9.188;2022-10-16T06:00:11;12.00;82.30
75451;DHT22;64029;48.244;9.188;2022-10-16T06:02:37;11.90;82.30
75451;DHT22;64029;48.244;9.188;2022-10-16T06:05:05;11.90;82.30
75451;DHT22;64029;48.244;9.188;2022-10-16T06:07:34;11.90;82.30
75451;DHT22;64029;48.244;9.188;2022-10-16T06:10:02;11.90;82.30
75451;DHT22;64029;48.244;9.188;2022-10-16T06:12:29;11.90;82.30
75451;DHT22;64029;48.244;9.188;2022-10-16T06:14:57;11.90;82.30
75451;DHT22;64029;48.244;9.188;2022-10-16T06:17:24;11.90;82.30
75451;DHT22;64029;48.244;9.188;2022-10-16T06:19:51;11.90;82.30
75451;DHT22;64029;48.244;9.188;2022-10-16T06:22:17;11.90;82.30
75451;DHT22;64029;48.244;9.188;2022-10-16T06:24:44;11.90;82.30
75451;DHT22;64029;48.244;9.188;2022-10-16T06:27:12;11.90;82.40
75451;DHT22;64029;48.244;9.188;2022-10-16T06:29:38;12.00;82.50
75451;DHT22;64029;48.244;9.188;2022-10-16T06:32:06;12.00;82.40
75451;DHT22;64029;48.244;9.188;2022-10-16T06:34:33;12.00;82.50
75451;DHT22;64029;48.244;9.188;2022-10-16T06:37:00;12.00;82.50
75451;DHT22;64029;48.244;9.188;2022-10-16T06:39:27;12.00;82.50
75451;DHT22;64029;48.244;9.188;2022-10-16T06:41:54;12.00;82.50
75451;DHT22;64029;48.244;9.188;2022-10-16T06:44:20;12.00;82.50
75451;DHT22;64029;48.244;9.188;2022-10-16T06:46:47;12.00;82.60
75451;DHT22;64029;48.244;9.188;2022-10-16T06:49:16;12.00;82.60
75451;DHT22;64029;48.244;9.188;2022-10-16T06:51:47;12.00;82.70
75451;DHT22;64029;48.244;9.188;2022-10-16T06:54:15;12.00;82.80
75451;DHT22;64029;48.244;9.188;2022-10-16T06:56:43;12.00;82.70
75451;DHT22;64029;48.244;9.188;2022-10-16T06:59:10;12.00;82.70
75451;DHT22;64029;48.244;9.188;2022-10-16T07:01:37;12.10;83.00
75451;DHT22;64029;48.244;9.188;2022-10-16T07:04:03;12.10;82.90
75451;DHT22;64029;48.244;9.188;2022-10-16T07:06:33;12.10;82.90
75451;DHT22;64029;48.244;9.188;2022-10-16T07:09:02;12.20;83.00
75451;DHT22;64029;48.244;9.188;2022-10-16T07:11:29;12.20;83.60
75451;DHT22;64029;48.244;9.188;2022-10-16T07:13:56;12.20;84.00
75451;DHT22;64029;48.244;9.188;2022-10-16T07:16:25;12.30;85.20
75451;DHT22;64029;48.244;9.188;2022-10-16T07:18:54;12.30;85.40
75451;DHT22;64029;48.244;9.188;2022-10-16T07:21:24;12.40;85.70
75451;DHT22;64029;48.244;9.188;2022-10-16T07:23:54;12.40;85.40
75451;DHT22;64029;48.244;9.188;2022-10-16T07:26:21;12.40;84.90
75451;DHT22;64029;48.244;9.188;2022-10-16T07:28:48;12.40;84.80
75451;DHT22;64029;48.244;9.188;2022-10-16T07:31:16;12.50;85.40
75451;DHT22;64029;48.244;9.188;2022-10-16T07:33:44;12.50;85.90
75451;DHT22;64029;48.244;9.188;2022-10-16T07:36:13;12.50;87.00
75451;DHT22;64029;48.244;9.188;2022-10-16T07:38:40;12.60;87.50
75451;DHT22;64029;48.244;9.188;2022-10-16T07:41:10;12.60;86.20
75451;DHT22;64029;48.244;9.188;2022-10-16T07:43:37;12.70;86.00
75451;DHT22;64029;48.244;9.188;2022-10-16T07:46:05;12.60;85.60
75451;DHT22;64029;48.244;9.188;2022-10-16T07:48:33;12.70;85.70
75451;DHT22;64029;48.244;9.188;2022-10-16T07:51:00;12.70;85.70
75451;DHT22;64029;48.244;9.188;2022-10-16T07:53:28;12.70;85.60
75451;DHT22;64029;48.244;9.188;2022-10-16T07:55:57;12.80;86.30
75451;DHT22;64029;48.244;9.188;2022-10-16T07:58:25;12.80;85.90
75451;DHT22;64029;48.244;9.188;2022-10-16T08:00:53;12.90;86.30
75451;DHT22;64029;48.244;9.188;2022-10-16T08:03:20;12.90;86.40
75451;DHT22;64029;48.244;9.188;2022-10-16T08:05:46;13.00;86.70
75451;DHT22;64029;48.244;9.188;2022-10-16T08:08:14;13.00;87.30
75451;DHT22;64029;48.244;9.188;2022-10-16T08:10:41;13.10;88.80
75451;DHT22;64029;48.244;9.188;2022-10-16T08:13:09;13.20;87.70
75451;DHT22;64029;48.244;9.188;2022-10-16T08:15:37;13.20;87.40
75451;DHT22;64029;48.244;9.188;2022-10-16T08:18:05;13.20;87.10
75451;DHT22;64029;48.244;9.188;2022-10-16T08:20:33;13.20;87.10
75451;DHT22;64029;48.244;9.188;2022-10-16T08:23:00;13.30;87.80
75451;DHT22;64029;48.244;9.188;2022-10-16T08:25:27;13.40;87.60
75451;DHT22;64029;48.244;9.188;2022-10-16T08:27:54;13.40;87.70
75451;DHT22;64029;48.244;9.188;2022-10-16T08:30:22;13.50;88.60
75451;DHT22;64029;48.244;9.188;2022-10-16T08:32:51;13.50;88.80
75451;DHT22;64029;48.244;9.188;2022-10-16T08:35:17;13.60;89.40
75451;DHT22;64029;48.244;9.188;2022-10-16T08:37:44;13.70;89.60
75451;DHT22;64029;48.244;9.188;2022-10-16T08:40:19;13.80;89.10
75451;DHT22;64029;48.244;9.188;2022-10-16T08:42:59;13.80;89.90
75451;DHT22;64029;48.244;9.188;2022-10-16T08:45:36;13.90;89.30
75451;DHT22;64029;48.244;9.188;2022-10-16T08:48:15;13.90;89.10
75451;DHT22;64029;48.244;9.188;2022-10-16T08:50:44;13.90;88.50
75451;DHT22;64029;48.244;9.188;2022-10-16T08:53:15;13.90;88.40
75451;DHT22;64029;48.244;9.188;2022-10-16T08:55:46;14.00;89.20
75451;DHT22;64029;48.244;9.188;2022-10-16T08:58:17;14.00;88.70
75451;DHT22;64029;48.244;9.188;2022-10-16T09:00:47;14.10;88.60
75451;DHT22;64029;48.244;9.188;2022-10-16T09:03:24;14.10;88.60
75451;DHT22;64029;48.244;9.188;2022-10-16T09:09:04;14.20;88.50
75451;DHT22;64029;48.244;9.188;2022-10-16T09:11:41;14.30;88.50
75451;DHT22;64029;48.244;9.188;2022-10-16T09:14:23;14.30;88.30
75451;DHT22;64029;48.244;9.188;2022-10-16T09:17:11;14.40;88.40
75451;DHT22;64029;48.244;9.188;2022-10-16T09:19:46;14.40;88.30
75451;DHT22;64029;48.244;9.188;2022-10-16T09:22:16;14.60;89.00
75451;DHT22;64029;48.244;9.188;2022-10-16T09:24:43;14.60;88.50
75451;DHT22;64029;48.244;9.188;2022-10-16T09:27:11;14.60;88.40
75451;DHT22;64029;48.244;9.188;2022-10-16T09:29:38;14.70;88.90
75451;DHT22;64029;48.244;9.188;2022-10-16T09:32:12;14.80;88.70
75451;DHT22;64029;48.244;9.188;2022-10-16T09:34:45;14.80;88.40
75451;DHT22;64029;48.244;9.188;2022-10-16T09:37:17;14.80;88.50
75451;DHT22;64029;48.244;9.188;2022-10-16T09:39:45;14.90;88.90
75451;DHT22;64029;48.244;9.188;2022-10-16T09:42:15;15.00;88.50
75451;DHT22;64029;48.244;9.188;2022-10-16T09:44:47;15.00;88.80
75451;DHT22;64029;48.244;9.188;2022-10-16T09:47:18;15.00;88.70
75451;DHT22;64029;48.244;9.188;2022-10-16T09:49:54;15.10;88.60
75451;DHT22;64029;48.244;9.188;2022-10-16T09:52:23;15.20;88.50
75451;DHT22;64029;48.244;9.188;2022-10-16T09:54:52;15.20;88.60
75451;DHT22;64029;48.244;9.188;2022-10-16T09:57:20;15.20;88.20
75451;DHT22;64029;48.244;9.188;2022-10-16T09:59:48;15.30;88.40
75451;DHT22;64029;48.244;9.188;2022-10-16T10:02:16;15.30;88.30
75451;DHT22;64029;48.244;9.188;2022-10-16T10:04:50;15.30;88.10
75451;DHT22;64029;48.244;9.188;2022-10-16T10:07:24;15.40;88.30
75451;DHT22;64029;48.244;9.188;2022-10-16T10:09:52;15.50;88.40
75451;DHT22;64029;48.244;9.188;2022-10-16T10:12:21;15.50;88.40
75451;DHT22;64029;48.244;9.188;2022-10-16T10:14:50;15.50;88.20
75451;DHT22;64029;48.244;9.188;2022-10-16T10:17:20;15.50;88.20
75451;DHT22;64029;48.244;9.188;2022-10-16T10:19:52;15.60;88.20
75451;DHT22;64029;48.244;9.188;2022-10-16T10:22:31;15.60;88.20
75451;DHT22;64029;48.244;9.188;2022-10-16T10:25:15;15.60;88.30
75451;DHT22;64029;48.244;9.188;2022-10-16T10:28:03;15.70;88.30
75451;DHT22;64029;48.244;9.188;2022-10-16T10:30:37;15.70;88.20
75451;DHT22;64029;48.244;9.188;2022-10-16T10:33:20;15.70;88.10
75451;DHT22;64029;48.244;9.188;2022-10-16T10:35:54;15.70;88.10
75451;DHT22;64029;48.244;9.188;2022-10-16T10:38:31;15.80;88.20
75451;DHT22;64029;48.244;9.188;2022-10-16T10:41:18;15.80;88.10
75451;DHT22;64029;48.244;9.188;2022-10-16T10:43:57;15.80;87.90
75451;DHT22;64029;48.244;9.188;2022-10-16T10:46:32;15.80;87.90
75451;DHT22;64029;48.244;9.188;2022-10-16T10:49:12;15.80;87.80
75451;DHT22;64029;48.244;9.188;2022-10-16T10:51:51;15.90;87.80
75451;DHT22;64029;48.244;9.188;2022-10-16T10:54:27;15.90;87.70
75451;DHT22;64029;48.244;9.188;2022-10-16T10:56:59;15.90;87.70
75451;DHT22;64029;48.244;9.188;2022-10-16T10:59:46;15.90;87.70
75451;DHT22;64029;48.244;9.188;2022-10-16T11:02:25;16.00;87.70
75451;DHT22;64029;48.244;9.188;2022-10-16T11:05:23;16.00;87.60
75451;DHT22;64029;48.244;9.188;2022-10-16T11:07:55;16.10;87.70
75451;DHT22;64029;48.244;9.188;2022-10-16T11:10:29;16.10;87.50
75451;DHT22;64029;48.244;9.188;2022-10-16T11:13:10;16.20;87.40
75451;DHT22;64029;48.244;9.188;2022-10-16T11:15:43;16.30;87.40
75451;DHT22;64029;48.244;9.188;2022-10-16T11:18:16;16.40;87.60
75451;DHT22;64029;48.244;9.188;2022-10-16T11:20:49;16.40;87.30
75451;DHT22;64029;48.244;9.188;2022-10-16T11:23:22;16.50;87.50
75451;DHT22;64029;48.244;9.188;2022-10-16T11:25:52;16.60;87.10
75451;DHT22;64029;48.244;9.188;2022-10-16T11:28:23;16.60;86.90
75451;DHT22;64029;48.244;9.188;2022-10-16T11:30:57;16.70;86.60
75451;DHT22;64029;48.244;9.188;2022-10-16T11:33:29;16.90;86.80
75451;DHT22;64029;48.244;9.188;2022-10-16T11:36:02;16.90;86.50
75451;DHT22;64029;48.244;9.188;2022-10-16T11:38:34;17.00;86.30
75451;DHT22;64029;48.244;9.188;2022-10-16T11:41:12;17.00;86.20
75451;DHT22;64029;48.244;9.188;2022-10-16T11:43:45;17.10;86.10
75451;DHT22;64029;48.244;9.188;2022-10-16T11:46:19;17.10;86.10
75451;DHT22;64029;48.244;9.188;2022-10-16T11:48:50;17.20;85.40
75451;DHT22;64029;48.244;9.188;2022-10-16T11:51:23;17.30;85.30
75451;DHT22;64029;48.244;9.188;2022-10-16T11:53:57;17.30;85.30
75451;DHT22;64029;48.244;9.188;2022-10-16T11:56:27;17.30;85.10
75451;DHT22;64029;48.244;9.188;2022-10-16T11:58:58;17.40;85.10
75451;DHT22;64029;48.244;9.188;2022-10-16T12:01:31;17.40;84.60
75451;DHT22;64029;48.244;9.188;2022-10-16T12:04:14;17.50;84.70
75451;DHT22;64029;48.244;9.188;2022-10-16T12:06:46;17.50;84.20
75451;DHT22;64029;48.244;9.188;2022-10-16T12:09:20;17.60;84.50
75451;DHT22;64029;48.244;9.188;2022-10-16T12:11:49;17.70;83.70
75451;DHT22;64029;48.244;9.188;2022-10-16T12:14:33;17.60;84.00
75451;DHT22;64029;48.244;9.188;2022-10-16T12:17:02;17.60;84.20
75451;DHT22;64029;48.244;9.188;2022-10-16T12:19:31;17.70;83.60
75451;DHT22;64029;48.244;9.188;2022-10-16T12:22:00;17.80;83.60
75451;DHT22;64029;48.244;9.188;2022-10-16T12:24:34;17.90;83.10
75451;DHT22;64029;48.244;9.188;2022-10-16T12:27:05;17.80;83.30
75451;DHT22;64029;48.244;9.188;2022-10-16T12:29:35;17.90;82.70
75451;DHT22;64029;48.244;9.188;2022-10-16T12:32:04;17.90;82.30
75451;DHT22;64029;48.244;9.188;2022-10-16T12:34:37;17.90;82.10
75451;DHT22;64029;48.244;9.188;2022-10-16T12:37:11;17.90;82.80
75451;DHT22;64029;48.244;9.188;2022-10-16T12:39:39;18.00;82.40
75451;DHT22;64029;48.244;9.188;2022-10-16T12:42:21;18.10;80.30
75451;DHT22;64029;48.244;9.188;2022-10-16T12:44:49;18.10;81.10
75451;DHT22;64029;48.244;9.188;2022-10-16T12:47:21;18.20;81.10
75451;DHT22;64029;48.244;9.188;2022-10-16T12:49:50;18.20;80.60
75451;DHT22;64029;48.244;9.188;2022-10-16T12:52:28;18.20;81.50
75451;DHT22;64029;48.244;9.188;2022-10-16T12:54:56;18.30;80.60
75451;DHT22;64029;48.244;9.188;2022-10-16T12:57:44;18.30;81.20
75451;DHT22;64029;48.244;9.188;2022-10-16T13:00:24;18.30;81.10
75451;DHT22;64029;48.244;9.188;2022-10-16T13:03:18;18.30;81.20
75451;DHT22;64029;48.244;9.188;2022-10-16T13:05:56;18.30;81.60
75451;DHT22;64029;48.244;9.188;2022-10-16T13:08:46;18.40;81.80
75451;DHT22;64029;48.244;9.188;2022-10-16T13:11:22;18.40;81.90
75451;DHT22;64029;48.244;9.188;2022-10-16T13:14:10;18.30;82.30
75451;DHT22;64029;48.244;9.188;2022-10-16T13:16:49;18.40;81.70
75451;DHT22;64029;48.244;9.188;2022-10-16T13:19:24;18.40;81.40
75451;DHT22;64029;48.244;9.188;2022-10-16T13:21:59;18.50;80.80
75451;DHT22;64029;48.244;9.188;2022-10-16T13:24:42;18.50;80.80
75451;DHT22;64029;48.244;9.188;2022-10-16T13:27:21;18.50;81.20
75451;DHT22;64029;48.244;9.188;2022-10-16T13:30:00;18.50;80.10
75451;DHT22;64029;48.244;9.188;2022-10-16T13:32:28;18.50;81.00
75451;DHT22;64029;48.244;9.188;2022-10-16T13:34:55;18.50;81.30
75451;DHT22;64029;48.244;9.188;2022-10-16T13:37:23;18.50;81.00
75451;DHT22;64029;48.244;9.188;2022-10-16T13:39:50;18.50;81.50
75451;DHT22;64029;48.244;9.188;2022-10-16T13:42:22;18.50;81.10
75451;DHT22;64029;48.244;9.188;2022-10-16T13:44:53;18.60;80.70
75451;DHT22;64029;48.244;9.188;2022-10-16T13:47:22;18.60;81.40
75451;DHT22;64029;48.244;9.188;2022-10-16T13:49:59;18.60;80.40
75451;DHT22;64029;48.244;9.188;2022-10-16T13:52:27;18.60;80.30
75451;DHT22;64029;48.244;9.188;2022-10-16T13:54:53;18.60;80.80
75451;DHT22;64029;48.244;9.188;2022-10-16T13:57:22;18.70;80.30
75451;DHT22;64029;48.244;9.188;2022-10-16T13:59:52;18.70;81.30
75451;DHT22;64029;48.244;9.188;2022-10-16T14:02:26;18.70;80.10
75451;DHT22;64029;48.244;9.188;2022-10-16T14:04:54;18.70;81.00
75451;DHT22;64029;48.244;9.188;2022-10-16T14:07:23;18.70;80.60
75451;DHT22;64029;48.244;9.188;2022-10-16T14:09:52;18.80;79.90
75451;DHT22;64029;48.244;9.188;2022-10-16T14:12:20;18.80;80.20
75451;DHT22;64029;48.244;9.188;2022-10-16T14:14:54;18.80;79.60
75451;DHT22;64029;48.244;9.188;2022-10-16T14:17:24;18.80;79.00
75451;DHT22;64029;48.244;9.188;2022-10-16T14:19:53;18.90;79.00
75451;DHT22;64029;48.244;9.188;2022-10-16T14:22:28;18.90;78.30
75451;DHT22;64029;48.244;9.188;2022-10-16T14:24:56;18.80;78.90
75451;DHT22;64029;48.244;9.188;2022-10-16T14:27:29;18.90;79.30
75451;DHT22;64029;48.244;9.188;2022-10-16T14:30:16;18.90;79.10
75451;DHT22;64029;48.244;9.188;2022-10-16T14:32:53;18.90;79.50
75451;DHT22;64029;48.244;9.188;2022-10-16T14:35:29;18.80;80.00
75451;DHT22;64029;48.244;9.188;2022-10-16T14:37:57;18.90;77.70
75451;DHT22;64029;48.244;9.188;2022-10-16T14:40:26;18.90;77.60
75451;DHT22;64029;48.244;9.188;2022-10-16T14:42:54;18.90;77.20
75451;DHT22;64029;48.244;9.188;2022-10-16T14:45:25;18.90;76.80
75451;DHT22;64029;48.244;9.188;2022-10-16T14:47:54;18.90;77.20
75451;DHT22;64029;48.244;9.188;2022-10-16T14:50:21;18.90;78.40
75451;DHT22;64029;48.244;9.188;2022-10-16T14:52:48;18.90;78.80
75451;DHT22;64029;48.244;9.188;2022-10-16T14:55:15;18.90;78.60
75451;DHT22;64029;48.244;9.188;2022-10-16T14:57:43;18.90;78.60
75451;DHT22;64029;48.244;9.188;2022-10-16T15:00:17;18.90;78.00
75451;DHT22;64029;48.244;9.188;2022-10-16T15:02:47;18.90;79.00
75451;DHT22;64029;48.244;9.188;2022-10-16T15:05:17;18.90;79.10
75451;DHT22;64029;48.244;9.188;2022-10-16T15:07:45;18.90;79.90
75451;DHT22;64029;48.244;9.188;2022-10-16T15:10:12;19.00;80.40
75451;DHT22;64029;48.244;9.188;2022-10-16T15:12:40;18.90;80.60
75451;DHT22;64029;48.244;9.188;2022-10-16T15:15:26;18.90;80.70
75451;DHT22;64029;48.244;9.188;2022-10-16T15:17:56;18.90;80.80
75451;DHT22;64029;48.244;9.188;2022-10-16T15:20:26;18.90;80.90
75451;DHT22;64029;48.244;9.188;2022-10-16T15:22:53;18.80;80.90
75451;DHT22;64029;48.244;9.188;2022-10-16T15:25:39;18.80;81.10
75451;DHT22;64029;48.244;9.188;2022-10-16T15:28:08;18.80;81.10
75451;DHT22;64029;48.244;9.188;2022-10-16T15:30:36;18.80;81.10
75451;DHT22;64029;48.244;9.188;2022-10-16T15:33:10;18.70;81.20
75451;DHT22;64029;48.244;9.188;2022-10-16T15:35:38;18.70;81.10
75451;DHT22;64029;48.244;9.188;2022-10-16T15:38:05;18.60;81.00
75451;DHT22;64029;48.244;9.188;2022-10-16T15:40:32;18.60;81.00
75451;DHT22;64029;48.244;9.188;2022-10-16T15:42:59;18.60;80.90
75451;DHT22;64029;48.244;9.188;2022-10-16T15:45:26;18.50;81.00
75451;DHT22;64029;48.244;9.188;2022-10-16T15:47:52;18.50;81.00
75451;DHT22;64029;48.244;9.188;2022-10-16T15:50:21;18.40;80.90
75451;DHT22;64029;48.244;9.188;2022-10-16T15:52:47;18.40;81.00